Time;durP1;ratioP1;P1;durP2;ratioP2;P2;SDS_P1;SDS_P2;PMS_P1;PMS_P2;Temp;Humidity;BMP_temperature;BMP_pressure;BME280_temperature;BME280_humidity;BME280_pressure;Samples;Min_cycle;Max_cycle;Signal;HPM_P1;HPM_P2
2022/07/10 00:00:36;;;;;;;6.10;1.63;;;14.20;99.90;;;;;;5052495;28;20543;-55
2022/07/10 00:03:03;;;;;;;7.53;1.45;;;14.20;99.90;;;;;;5052249;28;20052;-56
2022/07/10 00:05:29;;;;;;;13.35;1.85;;;14.20;99.90;;;;;;5052269;28;20057;-56
2022/07/10 00:07:55;;;;;;;7.55;1.60;;;14.20;99.90;;;;;;5052253;28;20420;-56
2022/07/10 00:10:21;;;;;;;9.13;1.58;;;14.10;99.90;;;;;;5052519;28;20047;-56
2022/07/10 00:12:48;;;;;;;8.48;1.40;;;14.20;99.90;;;;;;5052138;28;20451;-55
2022/07/10 00:15:15;;;;;;;12.80;1.80;;;14.10;99.90;;;;;;5052071;28;20041;-56
2022/07/10 00:17:41;;;;;;;9.52;2.17;;;14.10;99.90;;;;;;5052466;28;20044;-56
2022/07/10 00:20:09;;;;;;;10.13;1.67;;;14.10;99.90;;;;;;5052144;28;20048;-55
2022/07/10 00:22:35;;;;;;;7.47;1.63;;;14.10;99.90;;;;;;5052024;28;20037;-54
2022/07/10 00:25:03;;;;;;;8.70;1.73;;;14.10;99.90;;;;;;5052319;28;20124;-55
2022/07/10 00:27:28;;;;;;;10.32;1.85;;;14.10;99.90;;;;;;5052323;28;20059;-55
2022/07/10 00:29:54;;;;;;;12.80;2.45;;;14.10;99.90;;;;;;5052005;28;20485;-53
2022/07/10 00:32:20;;;;;;;11.10;1.90;;;14.10;99.90;;;;;;5051987;28;20044;-55
2022/07/10 00:34:45;;;;;;;7.72;1.70;;;14.20;99.90;;;;;;5052314;28;20060;-55
2022/07/10 00:37:11;;;;;;;10.25;1.95;;;14.20;99.90;;;;;;5051860;28;20485;-55
2022/07/10 00:39:37;;;;;;;8.95;1.67;;;14.20;99.90;;;;;;5051988;28;20032;-55
2022/07/10 00:42:15;;;;;;;10.23;1.90;;;14.10;99.90;;;;;;5055275;28;20094;-55
2022/07/10 00:44:42;;;;;;;12.60;2.75;;;14.20;99.90;;;;;;5056393;28;20116;-55
2022/07/10 00:47:09;;;;;;;11.02;1.60;;;14.20;99.90;;;;;;5056128;28;20048;-55
2022/07/10 00:49:38;;;;;;;15.00;2.15;;;14.20;99.90;;;;;;5056447;28;20090;-54
2022/07/10 00:52:07;;;;;;;10.07;1.77;;;14.10;99.90;;;;;;5056294;28;20041;-54
2022/07/10 00:54:34;;;;;;;12.52;1.83;;;14.10;99.90;;;;;;5056301;28;20679;-55
2022/07/10 00:57:02;;;;;;;7.45;1.15;;;14.00;99.90;;;;;;5055832;28;20041;-54
2022/07/10 00:59:28;;;;;;;11.23;1.98;;;14.10;99.90;;;;;;5055785;28;20041;-56
2022/07/10 01:01:54;;;;;;;10.90;1.77;;;14.00;99.90;;;;;;5055964;28;20045;-55
2022/07/10 01:04:20;;;;;;;11.10;1.50;;;13.90;99.90;;;;;;5054633;28;20044;-53
2022/07/10 01:06:45;;;;;;;8.13;1.42;;;13.90;99.90;;;;;;5056056;28;20126;-55
2022/07/10 01:09:11;;;;;;;8.82;1.25;;;13.80;99.90;;;;;;5037802;28;20072;-55
2022/07/10 01:11:37;;;;;;;8.70;1.35;;;13.70;99.90;;;;;;5055773;28;20036;-55
2022/07/10 01:14:03;;;;;;;7.78;1.10;;;13.70;99.90;;;;;;5055685;28;20060;-55
2022/07/10 01:16:33;;;;;;;9.10;1.55;;;13.70;99.90;;;;;;5055727;28;20492;-55
2022/07/10 01:18:59;;;;;;;10.35;1.48;;;13.70;99.90;;;;;;5055552;28;20041;-55
2022/07/10 01:21:31;;;;;;;9.23;1.60;;;13.70;99.90;;;;;;5055462;28;20047;-55
2022/07/10 01:23:57;;;;;;;9.50;2.03;;;13.60;99.90;;;;;;5055694;28;20041;-55
2022/07/10 01:26:23;;;;;;;9.13;1.20;;;13.50;99.90;;;;;;5055388;28;20120;-55
2022/07/10 01:28:54;;;;;;;5.60;1.40;;;13.50;99.90;;;;;;5055399;28;20477;-55
2022/07/10 01:31:29;;;;;;;12.38;1.65;;;13.60;99.90;;;;;;5055245;28;20045;-55
2022/07/10 01:33:55;;;;;;;9.07;1.63;;;13.60;99.90;;;;;;5055252;28;20040;-55
2022/07/10 01:36:22;;;;;;;13.10;1.65;;;13.50;99.90;;;;;;5055183;28;20053;-55
2022/07/10 01:38:51;;;;;;;9.02;1.58;;;13.60;99.90;;;;;;5055192;28;20162;-55
2022/07/10 01:41:16;;;;;;;7.60;1.13;;;13.60;99.90;;;;;;5054933;28;20124;-55
2022/07/10 01:43:44;;;;;;;9.07;1.40;;;13.60;99.90;;;;;;5055031;28;20125;-56
2022/07/10 01:46:11;;;;;;;10.93;1.40;;;13.50;99.90;;;;;;5055154;28;20047;-56
2022/07/10 01:48:37;;;;;;;7.85;1.77;;;13.50;99.90;;;;;;5055299;28;20059;-55
2022/07/10 01:51:04;;;;;;;8.15;1.80;;;13.50;99.90;;;;;;5055287;28;20036;-55
2022/07/10 01:53:30;;;;;;;7.72;1.27;;;13.50;99.90;;;;;;5054102;28;20048;-56
2022/07/10 01:55:56;;;;;;;9.50;1.90;;;13.50;99.90;;;;;;5054804;28;20388;-56
2022/07/10 01:58:21;;;;;;;9.52;1.83;;;13.50;99.90;;;;;;5054762;28;20055;-53
2022/07/10 02:00:47;;;;;;;8.10;1.30;;;13.50;99.90;;;;;;5037343;28;20047;-56
2022/07/10 02:05:58;;;;;;;11.18;1.75;;;13.40;99.90;;;;;;5054618;28;20068;-55
2022/07/10 02:08:23;;;;;;;9.95;1.65;;;13.40;99.90;;;;;;5054510;28;20033;-54
2022/07/10 02:10:49;;;;;;;8.57;1.35;;;13.50;99.90;;;;;;5036957;28;20076;-56
2022/07/10 02:13:17;;;;;;;11.55;1.83;;;13.50;99.90;;;;;;5054651;28;20044;-56
2022/07/10 02:15:43;;;;;;;10.60;2.28;;;13.60;99.90;;;;;;5054334;28;20094;-55
2022/07/10 02:18:09;;;;;;;8.57;1.50;;;13.60;99.90;;;;;;5054587;28;20044;-55
2022/07/10 02:20:36;;;;;;;6.13;1.42;;;13.60;99.90;;;;;;5054428;28;20064;-56
2022/07/10 02:23:02;;;;;;;10.68;2.20;;;13.60;99.90;;;;;;5054540;28;20053;-53
2022/07/10 02:25:27;;;;;;;8.02;1.60;;;13.70;99.90;;;;;;5054406;28;20037;-54
2022/07/10 02:27:53;;;;;;;10.63;1.83;;;13.70;99.90;;;;;;5054490;28;20091;-54
2022/07/10 02:30:19;;;;;;;10.88;1.40;;;13.70;99.90;;;;;;5036564;28;20052;-54
2022/07/10 02:32:45;;;;;;;8.25;1.30;;;13.80;99.90;;;;;;5054511;28;20465;-54
2022/07/10 02:35:10;;;;;;;6.43;1.88;;;13.80;99.90;;;;;;5054283;28;20033;-54
2022/07/10 02:37:36;;;;;;;7.72;1.30;;;13.80;99.90;;;;;;5054298;28;20095;-52
2022/07/10 02:40:02;;;;;;;6.50;1.35;;;13.90;99.90;;;;;;5054401;28;20053;-55
2022/07/10 02:42:27;;;;;;;8.52;1.38;;;13.80;99.90;;;;;;5054161;28;20087;-55
2022/07/10 02:44:53;;;;;;;8.15;2.75;;;13.90;99.90;;;;;;5054246;28;20037;-54
2022/07/10 02:47:19;;;;;;;9.68;1.30;;;13.90;99.90;;;;;;5054194;28;20048;-53
2022/07/10 02:49:44;;;;;;;8.27;1.30;;;13.80;99.90;;;;;;5054102;28;20053;-55
2022/07/10 02:52:10;;;;;;;11.43;1.27;;;13.80;99.90;;;;;;5053886;28;20045;-55
2022/07/10 02:54:36;;;;;;;9.27;1.42;;;13.80;99.90;;;;;;5053802;28;20166;-53
2022/07/10 02:57:02;;;;;;;11.38;1.65;;;13.90;99.90;;;;;;5036156;28;20044;-55
2022/07/10 02:59:27;;;;;;;8.23;1.40;;;13.80;99.90;;;;;;5053795;28;20036;-55
2022/07/10 03:01:53;;;;;;;8.27;1.45;;;13.90;99.90;;;;;;5053503;28;20052;-52
2022/07/10 03:04:19;;;;;;;9.20;2.33;;;13.90;99.90;;;;;;5053307;28;20036;-54
2022/07/10 03:06:44;;;;;;;11.15;1.92;;;14.00;99.90;;;;;;5035554;28;20036;-54
2022/07/10 03:09:10;;;;;;;7.57;1.50;;;14.10;99.90;;;;;;5053479;28;20056;-54
2022/07/10 03:11:36;;;;;;;13.48;1.77;;;14.10;99.90;;;;;;5053438;28;20047;-53
2022/07/10 03:14:01;;;;;;;11.68;2.15;;;14.20;99.90;;;;;;5053445;28;20040;-55
2022/07/10 03:16:27;;;;;;;7.30;1.60;;;14.20;99.90;;;;;;5053475;28;20037;-54
2022/07/10 03:18:52;;;;;;;9.63;1.50;;;14.20;99.90;;;;;;5053508;28;20044;-54
2022/07/10 03:21:18;;;;;;;10.68;1.90;;;14.20;99.90;;;;;;5053443;28;20061;-54
2022/07/10 03:23:44;;;;;;;7.47;1.67;;;14.30;99.90;;;;;;5053140;28;20045;-55
2022/07/10 03:26:09;;;;;;;11.27;1.70;;;14.30;99.90;;;;;;5053206;28;20401;-54
2022/07/10 03:28:35;;;;;;;8.20;2.05;;;14.30;99.90;;;;;;5053216;28;20037;-54
2022/07/10 03:31:02;;;;;;;8.65;1.65;;;14.40;99.90;;;;;;5053008;28;20049;-54
2022/07/10 03:33:28;;;;;;;11.38;1.75;;;14.40;99.90;;;;;;5053074;28;20048;-55
2022/07/10 03:35:54;;;;;;;10.57;1.73;;;14.50;99.90;;;;;;5053166;28;20040;-54
2022/07/10 03:38:20;;;;;;;11.85;1.40;;;14.40;99.90;;;;;;5052888;28;20048;-55
2022/07/10 03:40:47;;;;;;;6.80;1.40;;;14.50;99.90;;;;;;5053202;28;20064;-54
2022/07/10 03:43:14;;;;;;;12.20;1.83;;;14.50;99.90;;;;;;5034702;28;20060;-55
2022/07/10 03:45:40;;;;;;;6.22;1.70;;;14.50;99.90;;;;;;5052757;28;20037;-54
2022/07/10 03:48:06;;;;;;;12.38;1.90;;;14.50;99.90;;;;;;5034870;28;20159;-55
2022/07/10 03:50:33;;;;;;;9.15;1.80;;;14.50;99.90;;;;;;5035023;28;20040;-55
2022/07/10 03:52:58;;;;;;;10.50;2.10;;;14.40;99.90;;;;;;5033477;28;20037;-54
2022/07/10 03:55:24;;;;;;;15.02;2.45;;;14.40;99.90;;;;;;5032919;28;20489;-54
2022/07/10 03:58:02;;;;;;;9.57;1.83;;;14.40;99.90;;;;;;5032533;28;20038;-54
2022/07/10 04:00:31;;;;;;;11.13;1.88;;;14.40;99.90;;;;;;5032483;28;20615;-54
2022/07/10 04:03:02;;;;;;;10.30;2.05;;;14.40;99.90;;;;;;5032376;28;20048;-54
2022/07/10 04:05:29;;;;;;;6.57;1.67;;;14.40;99.90;;;;;;5032510;28;20517;-54
2022/07/10 04:07:59;;;;;;;13.30;2.55;;;14.40;99.90;;;;;;5032745;28;20167;-55
2022/07/10 04:10:26;;;;;;;9.52;2.20;;;14.50;99.90;;;;;;5032736;28;20037;-55
2022/07/10 04:12:52;;;;;;;8.23;1.63;;;14.40;99.90;;;;;;5032434;28;20559;-54
2022/07/10 04:15:18;;;;;;;11.38;2.45;;;14.50;99.90;;;;;;5031969;28;20046;-55
2022/07/10 04:17:43;;;;;;;11.52;2.05;;;14.50;99.90;;;;;;5014878;28;20041;-55
2022/07/10 04:20:10;;;;;;;11.18;1.98;;;14.60;99.90;;;;;;5032820;28;20045;-55
2022/07/10 04:22:35;;;;;;;10.65;2.63;;;14.70;99.90;;;;;;5052117;28;20045;-55
2022/07/10 04:25:02;;;;;;;11.05;1.98;;;14.70;99.90;;;;;;5052383;28;20047;-55
2022/07/10 04:27:28;;;;;;;10.50;2.55;;;14.70;99.90;;;;;;5052239;28;20033;-55
2022/07/10 04:29:53;;;;;;;10.90;1.95;;;14.70;99.90;;;;;;5067644;28;20044;-55
2022/07/10 04:32:19;;;;;;;13.00;2.15;;;14.70;99.90;;;;;;5052004;28;20538;-55
2022/07/10 04:34:45;;;;;;;14.65;2.90;;;14.80;99.90;;;;;;5052137;28;20079;-53
2022/07/10 04:37:11;;;;;;;7.10;1.58;;;14.70;99.90;;;;;;5052338;28;20045;-54
2022/07/10 04:39:39;;;;;;;12.27;2.10;;;14.70;99.90;;;;;;5052025;28;20040;-54
2022/07/10 04:42:06;;;;;;;8.60;1.75;;;14.80;99.90;;;;;;5052081;28;20086;-55
2022/07/10 04:44:32;;;;;;;11.32;1.98;;;14.80;99.90;;;;;;5051841;28;20048;-52
2022/07/10 04:47:00;;;;;;;8.10;1.60;;;14.80;99.90;;;;;;5052190;28;20052;-54
2022/07/10 04:49:26;;;;;;;13.82;2.85;;;14.80;99.90;;;;;;5052035;28;20367;-54
2022/07/10 04:51:52;;;;;;;9.77;1.67;;;14.90;99.90;;;;;;5051732;28;20106;-55
2022/07/10 04:54:18;;;;;;;9.23;1.48;;;14.90;99.90;;;;;;5034037;28;20049;-52
2022/07/10 04:56:44;;;;;;;7.72;1.40;;;14.90;99.90;;;;;;5052158;28;20045;-55
2022/07/10 04:59:10;;;;;;;9.68;1.63;;;14.90;99.90;;;;;;5052164;28;20052;-55
2022/07/10 05:01:37;;;;;;;6.38;1.65;;;14.80;99.90;;;;;;5052019;28;20036;-55
2022/07/10 05:04:03;;;;;;;9.30;1.92;;;14.90;99.90;;;;;;5017630;28;20102;-55
2022/07/10 05:06:29;;;;;;;7.88;1.95;;;14.90;99.90;;;;;;5051630;28;20049;-55
2022/07/10 05:08:55;;;;;;;7.20;1.25;;;14.90;99.90;;;;;;5052021;28;20041;-53
2022/07/10 05:11:21;;;;;;;10.75;1.70;;;14.90;99.90;;;;;;5051826;28;20383;-52
2022/07/10 05:13:48;;;;;;;7.85;1.85;;;14.80;99.90;;;;;;5052022;28;20389;-51
2022/07/10 05:16:16;;;;;;;7.40;1.88;;;14.90;99.90;;;;;;5051696;28;20055;-50
2022/07/10 05:18:42;;;;;;;10.23;2.05;;;14.90;99.90;;;;;;5051827;28;20500;-54
2022/07/10 05:21:08;;;;;;;10.32;1.88;;;14.90;99.90;;;;;;5051489;28;20108;-53
2022/07/10 05:23:34;;;;;;;8.00;1.95;;;14.90;99.90;;;;;;5046821;28;20104;-53
2022/07/10 05:26:00;;;;;;;8.65;1.83;;;14.90;99.90;;;;;;5055742;28;20043;-53
2022/07/10 05:28:26;;;;;;;8.52;1.80;;;14.90;99.90;;;;;;5044717;28;20050;-54
2022/07/10 05:30:52;;;;;;;10.05;1.83;;;15.00;99.90;;;;;;5058614;28;20120;-53
2022/07/10 05:33:18;;;;;;;6.13;1.45;;;15.00;99.90;;;;;;5045140;28;20094;-53
2022/07/10 05:35:44;;;;;;;7.45;1.40;;;15.00;99.90;;;;;;5042482;28;20080;-55
2022/07/10 05:38:10;;;;;;;8.77;1.73;;;15.00;99.90;;;;;;5043307;28;20049;-53
2022/07/10 05:40:36;;;;;;;11.38;2.40;;;15.00;99.90;;;;;;5043492;28;20432;-51
2022/07/10 05:43:01;;;;;;;8.35;1.83;;;15.00;99.90;;;;;;5059614;28;20045;-53
2022/07/10 05:45:27;;;;;;;9.93;1.60;;;15.00;99.90;;;;;;5043056;28;20397;-53
2022/07/10 05:47:53;;;;;;;7.93;1.63;;;15.00;99.90;;;;;;5042251;28;20037;-54
2022/07/10 05:50:19;;;;;;;10.27;1.63;;;15.00;99.90;;;;;;5042865;28;20474;-54
2022/07/10 05:52:44;;;;;;;14.57;2.55;;;14.90;99.90;;;;;;5045007;28;20102;-52
2022/07/10 05:55:10;;;;;;;7.95;1.65;;;14.80;99.90;;;;;;5024464;28;20099;-53
2022/07/10 05:57:36;;;;;;;8.23;1.65;;;14.80;99.90;;;;;;5041312;28;20434;-54
2022/07/10 06:00:07;;;;;;;13.35;2.08;;;14.80;99.90;;;;;;5053917;28;20044;-53
2022/07/10 06:02:33;;;;;;;10.20;1.95;;;14.80;99.90;;;;;;5053538;28;20045;-53
2022/07/10 06:04:59;;;;;;;10.80;2.05;;;14.80;99.90;;;;;;5053800;28;20049;-53
2022/07/10 06:07:25;;;;;;;11.20;2.20;;;14.90;99.90;;;;;;5053859;28;20485;-53
2022/07/10 06:09:51;;;;;;;10.18;2.03;;;15.00;99.90;;;;;;5053868;28;20033;-54
2022/07/10 06:12:16;;;;;;;11.23;2.00;;;14.90;99.90;;;;;;5053406;28;20539;-54
2022/07/10 06:14:42;;;;;;;10.18;2.15;;;15.00;99.90;;;;;;5053600;28;20055;-53
2022/07/10 06:17:08;;;;;;;12.23;2.10;;;15.10;99.90;;;;;;5053584;28;20481;-54
2022/07/10 06:19:34;;;;;;;9.05;1.90;;;15.20;99.90;;;;;;5053622;28;20044;-51
2022/07/10 06:24:44;;;;;;;7.82;1.42;;;15.20;99.90;;;;;;5053802;28;20068;-52
2022/07/10 06:27:10;;;;;;;8.23;1.33;;;15.30;99.90;;;;;;5053510;28;20033;-55
2022/07/10 06:29:37;;;;;;;7.97;1.23;;;15.30;99.90;;;;;;5053747;28;20048;-51
2022/07/10 06:32:04;;;;;;;6.88;1.48;;;15.40;99.90;;;;;;5052550;28;20060;-54
2022/07/10 06:34:29;;;;;;;8.23;1.38;;;15.40;99.90;;;;;;5053443;28;20178;-53
2022/07/10 06:36:55;;;;;;;9.07;1.30;;;15.50;99.90;;;;;;5052188;28;20123;-53
2022/07/10 06:39:21;;;;;;;6.50;1.23;;;15.50;99.90;;;;;;5052882;28;20044;-53
2022/07/10 06:41:47;;;;;;;6.88;1.30;;;15.50;99.90;;;;;;5053351;28;20048;-52
2022/07/10 06:44:12;;;;;;;6.47;1.30;;;15.60;99.90;;;;;;5053471;28;20037;-55
2022/07/10 06:46:38;;;;;;;8.52;1.60;;;15.70;99.90;;;;;;5051822;28;20047;-55
2022/07/10 06:49:04;;;;;;;9.85;1.60;;;15.80;99.90;;;;;;5053465;28;20154;-55
2022/07/10 06:51:30;;;;;;;10.82;1.50;;;15.70;99.90;;;;;;5053028;28;20037;-54
2022/07/10 06:53:57;;;;;;;9.05;1.90;;;15.50;99.90;;;;;;5035352;28;20123;-53
2022/07/10 06:56:23;;;;;;;7.90;1.98;;;15.20;99.90;;;;;;5035306;28;20122;-55
2022/07/10 06:58:48;;;;;;;6.32;1.50;;;15.10;99.90;;;;;;5053315;28;20041;-55
2022/07/10 07:01:14;;;;;;;7.75;1.77;;;15.00;99.90;;;;;;5052903;28;20480;-53
2022/07/10 07:03:40;;;;;;;8.00;1.70;;;14.90;99.90;;;;;;5052818;28;20037;-54
2022/07/10 07:06:06;;;;;;;9.05;1.70;;;14.90;99.90;;;;;;5034646;28;20091;-52
2022/07/10 07:08:31;;;;;;;8.80;1.67;;;14.80;99.90;;;;;;5052595;28;20047;-51
2022/07/10 07:10:57;;;;;;;11.50;2.20;;;14.80;99.90;;;;;;5052494;28;20076;-55
2022/07/10 07:13:23;;;;;;;14.50;2.53;;;14.90;99.90;;;;;;5043004;28;20033;-54
2022/07/10 07:15:59;;;;;;;9.57;2.25;;;14.80;99.90;;;;;;5040402;28;20067;-55
2022/07/10 07:18:32;;;;;;;6.47;1.25;;;14.80;99.90;;;;;;5043252;28;20044;-50
2022/07/10 07:23:46;;;;;;;7.60;1.90;;;14.80;99.90;;;;;;5043668;28;20107;-51
2022/07/10 07:26:11;;;;;;;8.98;1.73;;;14.80;99.90;;;;;;5042749;28;20068;-52
2022/07/10 07:28:37;;;;;;;8.10;2.17;;;14.80;99.90;;;;;;5042856;28;20397;-51
2022/07/10 07:31:03;;;;;;;8.18;1.77;;;15.00;99.90;;;;;;5038246;28;20041;-51
2022/07/10 07:33:29;;;;;;;12.07;2.00;;;15.10;99.90;;;;;;5040551;28;20119;-50
2022/07/10 07:35:54;;;;;;;10.70;1.50;;;15.20;99.90;;;;;;5046722;28;20028;-51
2022/07/10 07:38:20;;;;;;;12.23;2.20;;;15.30;99.90;;;;;;5051810;28;20466;-51
2022/07/10 07:40:46;;;;;;;8.45;1.90;;;15.50;99.90;;;;;;5051078;28;20090;-51
2022/07/10 07:43:11;;;;;;;6.47;1.35;;;15.50;99.90;;;;;;5051615;28;20104;-52
2022/07/10 07:45:37;;;;;;;6.93;1.35;;;15.50;99.90;;;;;;5045857;28;20497;-52
2022/07/10 07:48:03;;;;;;;7.93;1.33;;;15.60;99.90;;;;;;5043074;28;20051;-51
2022/07/10 07:50:31;;;;;;;7.88;1.33;;;15.60;99.90;;;;;;5050205;28;20616;-51
2022/07/10 07:52:57;;;;;;;9.50;1.48;;;15.60;99.90;;;;;;5051552;28;20049;-55
2022/07/10 07:55:24;;;;;;;9.07;1.77;;;15.70;99.90;;;;;;5051473;28;20037;-51
2022/07/10 07:57:54;;;;;;;9.07;1.85;;;15.70;99.90;;;;;;5051725;28;20500;-54
2022/07/10 08:00:22;;;;;;;5.13;1.38;;;15.80;99.90;;;;;;5051840;28;20052;-52
2022/07/10 08:02:49;;;;;;;8.10;0.93;;;15.90;99.90;;;;;;5052166;28;20041;-52
2022/07/10 08:05:15;;;;;;;4.75;0.85;;;15.80;99.90;;;;;;5051714;28;20390;-54
2022/07/10 08:07:44;;;;;;;5.32;0.75;;;15.80;99.90;;;;;;5051980;28;20036;-52
2022/07/10 08:10:17;;;;;;;5.20;0.75;;;15.80;99.90;;;;;;5051976;28;20439;-52
2022/07/10 08:12:45;;;;;;;5.75;0.90;;;15.80;99.90;;;;;;5051755;28;20123;-51
2022/07/10 08:15:12;;;;;;;2.70;0.63;;;15.80;99.90;;;;;;5033971;28;20511;-51
2022/07/10 08:17:38;;;;;;;2.72;0.70;;;15.80;99.90;;;;;;5051554;28;20051;-52
2022/07/10 08:20:05;;;;;;;3.13;0.70;;;15.80;99.90;;;;;;5033218;28;20053;-53
2022/07/10 08:22:32;;;;;;;5.63;0.82;;;15.70;99.90;;;;;;5033041;28;20068;-52
2022/07/10 08:24:58;;;;;;;4.78;0.85;;;15.60;99.90;;;;;;5050278;28;20033;-54
2022/07/10 08:27:24;;;;;;;3.08;0.80;;;15.60;99.90;;;;;;5039818;28;20040;-53
2022/07/10 08:29:50;;;;;;;3.50;0.70;;;15.60;99.90;;;;;;5044751;28;20116;-53
2022/07/10 08:32:16;;;;;;;3.78;0.73;;;15.60;99.90;;;;;;5050933;28;20159;-52
2022/07/10 08:34:42;;;;;;;4.95;1.00;;;15.60;99.90;;;;;;5051151;28;20044;-54
2022/07/10 08:37:07;;;;;;;5.90;1.35;;;15.50;99.90;;;;;;5051296;28;20123;-52
2022/07/10 08:39:33;;;;;;;4.93;1.40;;;15.50;99.90;;;;;;5051395;28;20580;-53
2022/07/10 08:41:59;;;;;;;8.32;1.20;;;15.50;99.90;;;;;;5051355;28;20041;-54
2022/07/10 08:44:26;;;;;;;7.72;1.95;;;15.60;99.90;;;;;;5051019;28;20037;-54
2022/07/10 08:46:52;;;;;;;7.80;1.88;;;15.70;99.90;;;;;;5050636;28;20039;-54
2022/07/10 08:49:20;;;;;;;5.85;1.10;;;15.80;99.90;;;;;;5047916;28;20033;-54
2022/07/10 08:52:27;;;;;;;7.88;1.20;;;15.80;99.90;;;;;;5050431;28;20166;-53
2022/07/10 08:54:53;;;;;;;5.63;1.40;;;15.80;99.90;;;;;;5017853;28;20041;-54
2022/07/10 08:57:20;;;;;;;11.63;1.27;;;15.60;99.90;;;;;;5050955;28;20036;-53
2022/07/10 08:59:45;;;;;;;6.07;1.30;;;15.50;99.90;;;;;;5050565;28;20037;-53
2022/07/10 09:02:11;;;;;;;8.55;2.05;;;15.60;99.90;;;;;;5052564;28;20489;-52
2022/07/10 09:04:37;;;;;;;8.30;1.50;;;15.50;99.90;;;;;;5054339;28;20040;-53
2022/07/10 09:07:04;;;;;;;6.10;1.35;;;15.20;99.90;;;;;;5054856;28;20047;-52
2022/07/10 09:09:29;;;;;;;6.53;1.60;;;15.10;99.90;;;;;;5037375;28;20107;-52
2022/07/10 09:12:00;;;;;;;6.53;1.70;;;14.80;99.90;;;;;;5055042;28;20040;-52
2022/07/10 09:14:27;;;;;;;6.72;2.10;;;14.70;99.90;;;;;;5036688;28;20123;-54
2022/07/10 09:16:53;;;;;;;10.52;1.98;;;14.60;99.90;;;;;;5054159;28;20059;-53
2022/07/10 09:19:22;;;;;;;6.18;2.10;;;14.50;99.90;;;;;;5037175;28;20051;-53
2022/07/10 09:21:52;;;;;;;9.02;2.30;;;14.70;99.90;;;;;;5054541;28;20052;-52
2022/07/10 09:24:19;;;;;;;10.75;2.75;;;14.40;99.90;;;;;;5054973;28;20037;-53
2022/07/10 09:26:56;;;;;;;7.65;2.38;;;14.60;99.90;;;;;;5054668;28;20427;-51
2022/07/10 09:29:23;;;;;;;8.77;2.60;;;14.60;99.90;;;;;;5054420;28;20045;-50
2022/07/10 09:32:00;;;;;;;7.18;2.03;;;14.60;99.90;;;;;;5053429;28;20041;-52
2022/07/10 09:34:42;;;;;;;12.75;3.33;;;14.60;99.90;;;;;;5047739;28;20045;-51
2022/07/10 09:37:25;;;;;;;8.18;2.72;;;14.60;99.90;;;;;;5053774;28;20103;-52
2022/07/10 09:39:58;;;;;;;;;;;14.70;99.90;;;;;;5054704;28;20343;-52
2022/07/10 09:42:34;;;;;;;8.77;2.65;;;15.00;99.90;;;;;;5054404;28;19964;-51
2022/07/10 09:45:16;;;;;;;7.03;2.40;;;14.90;99.90;;;;;;5054355;28;20417;-53
2022/07/10 09:47:52;;;;;;;9.55;3.13;;;15.10;99.90;;;;;;5053434;28;20040;-53
2022/07/10 09:50:31;;;;;;;8.57;2.50;;;15.10;99.90;;;;;;5054067;28;20037;-53
2022/07/10 09:53:01;;;;;;;8.73;2.55;;;15.10;99.90;;;;;;5054131;28;20785;-51
2022/07/10 09:55:32;;;;;;;9.82;3.20;;;15.10;99.90;;;;;;5053964;28;20584;-54
2022/07/10 09:57:59;;;;;;;9.00;3.30;;;15.10;99.90;;;;;;5053568;28;20045;-54
2022/07/10 10:00:31;;;;;;;11.90;3.45;;;15.20;99.90;;;;;;5054199;28;20098;-51
2022/07/10 10:03:03;;;;;;;9.93;3.25;;;15.30;99.90;;;;;;5054066;28;20093;-53
2022/07/10 10:05:54;;;;;;;10.40;3.17;;;15.30;99.90;;;;;;5035979;28;20053;-52
2022/07/10 10:08:25;;;;;;;9.93;3.58;;;15.20;99.90;;;;;;5053519;28;20508;-53
2022/07/10 10:10:52;;;;;;;13.32;3.55;;;15.40;99.90;;;;;;5053828;28;20055;-51
2022/07/10 10:13:30;;;;;;;10.80;3.00;;;15.30;99.90;;;;;;5034759;28;20056;-51
2022/07/10 10:15:56;;;;;;;9.63;2.85;;;15.40;99.90;;;;;;5053676;28;20047;-51
2022/07/10 10:18:25;;;;;;;13.15;3.20;;;15.40;99.90;;;;;;5053801;28;20048;-53
2022/07/10 10:20:53;;;;;;;8.32;3.45;;;15.20;99.90;;;;;;5053940;28;20032;-54
2022/07/10 10:23:20;;;;;;;11.07;3.20;;;15.50;99.90;;;;;;5053479;28;20056;-56
2022/07/10 10:25:56;;;;;;;11.32;2.63;;;15.40;99.90;;;;;;5053644;28;20037;-50
2022/07/10 10:28:24;;;;;;;10.02;3.50;;;15.50;99.90;;;;;;5053634;28;20033;-57
2022/07/10 10:30:57;;;;;;;16.10;3.47;;;15.60;99.90;;;;;;5052357;28;20048;-57
2022/07/10 10:33:32;;;;;;;10.45;3.15;;;15.60;99.90;;;;;;5053255;28;20080;-56
2022/07/10 10:36:02;;;;;;;10.52;2.58;;;15.70;99.90;;;;;;5053635;28;20140;-58
2022/07/10 10:38:55;;;;;;;10.40;2.33;;;15.70;99.90;;;;;;5052935;28;20056;-59
2022/07/10 10:41:33;;;;;;;8.80;2.40;;;15.50;99.90;;;;;;5052634;28;20049;-60
2022/07/10 10:44:15;;;;;;;8.25;2.90;;;15.60;99.90;;;;;;5053053;28;20709;-59
2022/07/10 10:46:53;;;;;;;9.43;2.17;;;15.70;99.90;;;;;;5053404;28;20049;-59
2022/07/10 10:49:21;;;;;;;9.30;2.53;;;15.90;99.90;;;;;;5053195;28;20068;-59
2022/07/10 10:52:06;;;;;;;10.10;2.17;;;16.00;99.90;;;;;;5052791;28;20482;-59
2022/07/10 10:54:55;;;;;;;8.02;2.13;;;16.00;99.90;;;;;;5034074;28;20033;-59
2022/07/10 10:57:22;;;;;;;9.23;2.00;;;16.00;99.90;;;;;;5050187;28;20052;-60
2022/07/10 10:59:53;;;;;;;10.57;2.42;;;16.30;99.90;;;;;;5051993;28;20551;-59
2022/07/10 11:02:33;;;;;;;7.45;2.15;;;16.60;99.90;;;;;;5050340;28;20072;-59
2022/07/10 11:05:14;;;;;;;7.18;1.95;;;16.50;99.90;;;;;;5052503;28;20053;-60
2022/07/10 11:08:01;;;;;;;7.65;2.22;;;16.60;99.90;;;;;;5052473;28;20091;-58
2022/07/10 11:10:46;;;;;;;8.65;2.58;;;16.50;99.90;;;;;;5051423;28;20044;-59
2022/07/10 11:13:16;;;;;;;6.82;1.92;;;16.30;99.90;;;;;;5044244;28;20068;-58
2022/07/10 11:15:47;;;;;;;7.05;1.92;;;16.10;99.90;;;;;;5050717;28;20049;-59
2022/07/10 11:18:18;;;;;;;7.07;1.88;;;16.10;99.90;;;;;;5049885;28;20041;-58
2022/07/10 11:20:51;;;;;;;9.88;1.90;;;16.20;99.90;;;;;;5052113;28;20076;-58
2022/07/10 11:23:47;;;;;;;7.65;1.90;;;16.30;99.90;;;;;;5048959;28;20044;-58
2022/07/10 11:26:31;;;;;;;6.30;2.13;;;16.10;99.90;;;;;;5032096;28;20041;-58
2022/07/10 11:29:02;;;;;;;5.95;1.98;;;16.00;99.90;;;;;;5031838;28;20046;-58
2022/07/10 11:31:31;;;;;;;9.25;2.17;;;16.10;99.90;;;;;;5032286;28;20120;-58
2022/07/10 11:33:57;;;;;;;7.03;2.03;;;16.20;99.90;;;;;;5032159;28;20041;-58
2022/07/10 11:36:33;;;;;;;7.50;2.10;;;16.30;99.90;;;;;;5032409;28;20039;-58
2022/07/10 11:39:08;;;;;;;5.80;1.90;;;16.40;99.90;;;;;;5014474;28;20049;-59
2022/07/10 11:41:34;;;;;;;8.43;2.05;;;16.20;99.90;;;;;;5032378;28;20113;-58
2022/07/10 11:44:02;;;;;;;6.90;2.05;;;16.30;99.90;;;;;;5032339;28;20056;-57
2022/07/10 11:46:33;;;;;;;8.68;2.30;;;16.20;99.90;;;;;;5032102;28;20110;-58
2022/07/10 11:49:04;;;;;;;8.23;2.30;;;16.30;99.90;;;;;;5032293;28;20382;-46
2022/07/10 11:51:41;;;;;;;9.63;2.35;;;16.20;99.90;;;;;;5039016;28;20032;-46
2022/07/10 11:54:13;;;;;;;7.60;2.30;;;16.30;99.90;;;;;;5051656;28;20041;-45
2022/07/10 11:56:43;;;;;;;12.05;3.33;;;16.20;99.90;;;;;;5027678;28;20038;-48
2022/07/10 11:59:11;;;;;;;8.18;2.35;;;16.30;99.90;;;;;;5044101;28;20346;-45
2022/07/10 12:01:45;;;;;;;9.52;2.55;;;16.40;99.90;;;;;;5051321;28;20060;-45
2022/07/10 12:04:12;;;;;;;8.25;2.45;;;16.50;99.90;;;;;;5050963;28;20040;-48
2022/07/10 12:06:40;;;;;;;11.55;2.67;;;16.60;99.90;;;;;;5051199;28;20068;-48
2022/07/10 12:09:08;;;;;;;10.68;2.65;;;16.60;99.90;;;;;;5051565;28;20037;-46
2022/07/10 12:11:35;;;;;;;7.97;2.22;;;16.50;99.90;;;;;;5051425;28;20040;-46
2022/07/10 12:14:17;;;;;;;12.93;2.67;;;16.50;99.90;;;;;;5033383;28;20676;-46
2022/07/10 12:16:51;;;;;;;10.75;2.22;;;16.70;99.90;;;;;;5051353;28;20126;-48
2022/07/10 12:19:23;;;;;;;8.90;2.35;;;16.60;99.90;;;;;;5051142;28;20037;-47
2022/07/10 12:21:49;;;;;;;8.10;1.80;;;16.60;99.90;;;;;;5050890;28;20051;-46
2022/07/10 12:24:23;;;;;;;6.85;1.65;;;16.60;99.90;;;;;;5066576;28;20041;-49
2022/07/10 12:26:51;;;;;;;7.57;1.75;;;16.60;99.90;;;;;;5051527;28;20354;-48
2022/07/10 12:29:24;;;;;;;8.30;1.60;;;16.50;99.90;;;;;;5051562;28;20041;-47
2022/07/10 12:31:54;;;;;;;9.98;2.20;;;16.40;99.90;;;;;;5051071;28;20041;-47
2022/07/10 12:34:21;;;;;;;10.00;2.65;;;16.20;99.90;;;;;;5051319;28;20041;-46
2022/07/10 12:36:48;;;;;;;10.82;3.08;;;16.20;99.90;;;;;;5050436;28;20041;-48
2022/07/10 12:39:19;;;;;;;9.38;2.50;;;15.90;99.90;;;;;;5049871;28;20053;-46
2022/07/10 12:41:58;;;;;;;6.10;2.45;;;15.90;99.90;;;;;;5051254;28;20041;-46
2022/07/10 12:44:36;;;;;;;8.40;2.22;;;15.90;99.90;;;;;;5051237;28;20047;-46
2022/07/10 12:47:11;;;;;;;13.60;2.67;;;16.00;99.90;;;;;;5049216;28;20671;-46
2022/07/10 12:49:53;;;;;;;7.35;3.00;;;15.80;99.90;;;;;;5050833;28;20052;-46
2022/07/10 12:52:31;;;;;;;8.43;3.08;;;15.60;99.90;;;;;;5049974;28;20079;-50
2022/07/10 12:55:09;;;;;;;11.45;3.72;;;15.60;99.90;;;;;;5048255;28;20379;-50
2022/07/10 12:58:05;;;;;;;8.63;3.15;;;15.70;99.90;;;;;;5048284;28;20843;-46